Time;durP1;ratioP1;P1;durP2;ratioP2;P2;SDS_P1;SDS_P2;PMS_P1;PMS_P2;Temp;Humidity;BMP_temperature;BMP_pressure;BME280_temperature;BME280_humidity;BME280_pressure;Samples;Min_cycle;Max_cycle;Signal;HPM_P1;HPM_P2
2021/07/07 00:00:14;;;;;;;5.67;5.10;;;;;;;;;;5073761;28;20461;-73
2021/07/07 00:02:40;;;;;;;6.00;5.50;;;;;;;;;;5074085;28;20430;-74
2021/07/07 00:05:07;;;;;;;6.73;6.03;;;;;;;;;;5055644;28;20492;-74
2021/07/07 00:07:33;;;;;;;11.33;6.67;;;;;;;;;;5074072;28;20416;-73
2021/07/07 00:09:59;;;;;;;9.00;6.63;;;;;;;;;;5073732;28;20426;-74
2021/07/07 00:12:25;;;;;;;7.10;5.63;;;;;;;;;;5073779;28;20460;-73
2021/07/07 00:14:52;;;;;;;6.37;5.50;;;;;;;;;;5073428;28;20519;-73
2021/07/07 00:17:18;;;;;;;8.17;6.10;;;;;;;;;;5073562;28;20413;-73
2021/07/07 00:19:44;;;;;;;7.10;5.93;;;;;;;;;;5073120;28;20473;-73
2021/07/07 00:22:10;;;;;;;6.43;4.50;;;;;;;;;;5073482;28;20783;-74
2021/07/07 00:24:36;;;;;;;9.63;5.50;;;;;;;;;;5073188;28;20425;-74
2021/07/07 00:27:02;;;;;;;7.03;6.33;;;;;;;;;;5055474;28;20427;-73
2021/07/07 00:29:28;;;;;;;9.00;7.30;;;;;;;;;;5073457;28;20473;-74
2021/07/07 00:31:54;;;;;;;6.70;6.10;;;;;;;;;;5054373;28;20457;-73
2021/07/07 00:34:20;;;;;;;6.17;4.60;;;;;;;;;;5073268;28;20420;-73
2021/07/07 00:36:46;;;;;;;5.10;4.60;;;;;;;;;;5055102;28;20511;-74
2021/07/07 00:39:12;;;;;;;7.80;4.80;;;;;;;;;;5072502;28;20430;-74
2021/07/07 00:41:38;;;;;;;6.83;5.47;;;;;;;;;;5072984;28;20508;-73
2021/07/07 00:44:04;;;;;;;5.90;5.40;;;;;;;;;;5072938;28;20426;-73
2021/07/07 00:46:30;;;;;;;6.37;5.80;;;;;;;;;;5073098;28;20912;-73
2021/07/07 00:48:56;;;;;;;7.67;5.90;;;;;;;;;;5054638;28;20947;-73
2021/07/07 00:51:22;;;;;;;5.73;4.73;;;;;;;;;;5072795;28;20430;-75
2021/07/07 00:53:50;;;;;;;6.60;5.40;;;;;;;;;;5054670;28;20453;-74
2021/07/07 00:56:17;;;;;;;9.00;5.00;;;;;;;;;;5072857;28;21009;-74
2021/07/07 00:58:45;;;;;;;6.70;3.83;;;;;;;;;;5072601;28;20906;-74
2021/07/07 01:01:11;;;;;;;3.87;3.50;;;;;;;;;;5072797;28;20488;-73
2021/07/07 01:03:37;;;;;;;4.23;3.83;;;;;;;;;;5072512;28;20784;-74
2021/07/07 01:06:03;;;;;;;5.00;3.97;;;;;;;;;;5054292;28;20488;-74
2021/07/07 01:08:29;;;;;;;4.40;4.00;;;;;;;;;;5069532;28;20449;-73
2021/07/07 01:10:55;;;;;;;7.20;4.47;;;;;;;;;;5072740;28;20425;-74
2021/07/07 01:13:21;;;;;;;7.20;5.13;;;;;;;;;;5072715;28;20414;-74
2021/07/07 01:15:48;;;;;;;4.40;4.00;;;;;;;;;;5072463;28;20552;-74
2021/07/07 01:18:14;;;;;;;9.00;4.70;;;;;;;;;;5071914;28;20479;-73
2021/07/07 01:20:40;;;;;;;5.83;5.00;;;;;;;;;;5068619;28;20474;-74
2021/07/07 01:23:06;;;;;;;12.77;5.23;;;;;;;;;;5072367;28;20418;-74
2021/07/07 01:25:34;;;;;;;4.13;3.70;;;;;;;;;;5072461;28;20922;-74
2021/07/07 01:28:03;;;;;;;6.17;4.53;;;;;;;;;;5069845;28;20447;-73
2021/07/07 01:30:29;;;;;;;6.43;4.43;;;;;;;;;;5072367;28;20441;-75
2021/07/07 01:32:56;;;;;;;6.27;3.97;;;;;;;;;;5072447;28;20422;-73
2021/07/07 01:35:22;;;;;;;5.40;4.90;;;;;;;;;;5072458;28;20434;-74
2021/07/07 01:37:49;;;;;;;5.90;5.30;;;;;;;;;;5054219;28;20462;-73
2021/07/07 01:40:18;;;;;;;6.70;5.93;;;;;;;;;;5071811;28;20453;-73
2021/07/07 01:42:44;;;;;;;8.47;7.27;;;;;;;;;;5076423;28;20921;-74
2021/07/07 01:45:11;;;;;;;7.90;7.10;;;;;;;;;;5078934;28;20410;-74
2021/07/07 01:47:37;;;;;;;6.90;5.80;;;;;;;;;;5078831;28;20813;-73
2021/07/07 01:50:04;;;;;;;8.50;6.57;;;;;;;;;;5078609;28;20409;-74
2021/07/07 01:52:30;;;;;;;7.67;4.97;;;;;;;;;;5079073;28;20521;-74
2021/07/07 01:54:56;;;;;;;5.00;4.43;;;;;;;;;;5076444;28;20979;-73
2021/07/07 01:57:22;;;;;;;5.07;3.87;;;;;;;;;;5054185;28;20534;-73
2021/07/07 01:59:48;;;;;;;4.17;3.77;;;;;;;;;;5078838;28;20501;-73
2021/07/07 02:02:14;;;;;;;3.20;2.83;;;;;;;;;;5078501;28;20436;-74
2021/07/07 02:04:40;;;;;;;4.47;3.87;;;;;;;;;;5078591;28;20765;-72
2021/07/07 02:07:06;;;;;;;3.40;3.07;;;;;;;;;;5078627;28;20457;-74
2021/07/07 02:09:32;;;;;;;3.37;2.97;;;;;;;;;;5078721;28;20499;-73
2021/07/07 02:11:58;;;;;;;3.80;3.50;;;;;;;;;;5078329;28;20413;-74
2021/07/07 02:14:24;;;;;;;3.57;3.10;;;;;;;;;;5078510;28;20512;-74
2021/07/07 02:16:50;;;;;;;3.77;3.47;;;;;;;;;;5078635;28;20504;-74
2021/07/07 02:19:16;;;;;;;4.50;4.10;;;;;;;;;;5075717;28;20532;-73
2021/07/07 02:21:42;;;;;;;4.90;4.50;;;;;;;;;;5078318;28;20471;-74
2021/07/07 02:24:08;;;;;;;4.20;3.80;;;;;;;;;;5078419;28;20429;-74
2021/07/07 02:26:35;;;;;;;5.47;3.97;;;;;;;;;;5078751;28;20764;-74
2021/07/07 02:29:02;;;;;;;4.57;4.23;;;;;;;;;;5078712;28;20870;-74
2021/07/07 02:31:27;;;;;;;5.13;3.60;;;;;;;;;;5078707;28;21000;-73
2021/07/07 02:33:53;;;;;;;6.43;4.40;;;;;;;;;;5060260;28;20449;-74
2021/07/07 02:36:19;;;;;;;4.67;4.20;;;;;;;;;;5078415;28;20509;-73
2021/07/07 02:38:46;;;;;;;4.37;3.97;;;;;;;;;;5078451;28;20478;-74
2021/07/07 02:41:12;;;;;;;6.37;4.00;;;;;;;;;;5060164;28;20484;-72
2021/07/07 02:43:38;;;;;;;5.53;4.13;;;;;;;;;;5078267;28;20857;-74
2021/07/07 02:46:04;;;;;;;4.07;3.03;;;;;;;;;;5078262;28;20418;-75
2021/07/07 02:48:30;;;;;;;3.70;3.40;;;;;;;;;;5078254;28;20436;-73
2021/07/07 02:50:56;;;;;;;3.90;3.60;;;;;;;;;;5078256;28;20521;-74
2021/07/07 02:53:22;;;;;;;3.70;3.40;;;;;;;;;;5058375;28;20422;-73
2021/07/07 02:55:48;;;;;;;3.10;2.83;;;;;;;;;;5074771;28;20475;-75
2021/07/07 02:58:14;;;;;;;4.83;3.50;;;;;;;;;;5057131;28;20860;-73
2021/07/07 03:00:44;;;;;;;3.23;2.80;;;;;;;;;;5074739;28;20469;-74
2021/07/07 03:03:15;;;;;;;2.90;2.60;;;;;;;;;;5074493;28;20429;-74
2021/07/07 03:05:45;;;;;;;3.20;2.90;;;;;;;;;;5074960;28;20434;-74
2021/07/07 03:08:12;;;;;;;3.43;3.13;;;;;;;;;;5074835;28;20505;-73
2021/07/07 03:10:39;;;;;;;4.53;4.13;;;;;;;;;;5074012;28;20480;-73
2021/07/07 03:13:05;;;;;;;3.83;2.93;;;;;;;;;;5074932;28;20414;-73
2021/07/07 03:15:33;;;;;;;5.07;3.10;;;;;;;;;;5074801;28;20470;-73
2021/07/07 03:17:59;;;;;;;8.10;3.33;;;;;;;;;;5056171;28;20430;-75
2021/07/07 03:20:25;;;;;;;3.07;2.77;;;;;;;;;;5074498;28;20565;-74
2021/07/07 03:22:51;;;;;;;3.33;3.03;;;;;;;;;;5056963;28;20572;-74
2021/07/07 03:25:17;;;;;;;4.17;3.80;;;;;;;;;;5074147;28;20940;-73
2021/07/07 03:27:43;;;;;;;4.77;3.90;;;;;;;;;;5074895;28;20410;-74
2021/07/07 03:30:09;;;;;;;5.03;3.70;;;;;;;;;;5054286;28;20587;-74
2021/07/07 03:32:35;;;;;;;4.47;3.67;;;;;;;;;;5074547;28;20426;-74
2021/07/07 03:35:03;;;;;;;3.73;3.43;;;;;;;;;;5073951;28;20524;-73
2021/07/07 03:37:29;;;;;;;3.20;3.00;;;;;;;;;;5074629;28;20410;-74
2021/07/07 03:39:55;;;;;;;3.03;2.83;;;;;;;;;;5073837;28;20461;-74
2021/07/07 03:42:21;;;;;;;2.70;2.50;;;;;;;;;;5056207;28;20433;-74
2021/07/07 03:44:47;;;;;;;2.50;2.30;;;;;;;;;;5074309;28;20521;-74
2021/07/07 03:47:13;;;;;;;2.17;1.97;;;;;;;;;;5074122;28;21116;-73
2021/07/07 03:49:39;;;;;;;2.33;2.10;;;;;;;;;;5068548;28;20453;-73
2021/07/07 03:52:05;;;;;;;1.77;1.67;;;;;;;;;;5073523;28;20520;-75
2021/07/07 03:54:32;;;;;;;2.13;1.93;;;;;;;;;;5074087;28;20896;-74
2021/07/07 03:56:58;;;;;;;2.80;1.97;;;;;;;;;;5073601;28;20426;-75
2021/07/07 03:59:24;;;;;;;4.10;2.37;;;;;;;;;;5074007;28;20421;-74
2021/07/07 04:01:50;;;;;;;2.13;1.90;;;;;;;;;;5074020;28;20418;-74
2021/07/07 04:04:16;;;;;;;5.20;2.10;;;;;;;;;;5073855;28;20802;-73
2021/07/07 04:06:43;;;;;;;3.63;1.90;;;;;;;;;;5057815;28;20796;-73
2021/07/07 04:09:09;;;;;;;2.80;1.80;;;;;;;;;;5053976;28;20420;-74
2021/07/07 04:11:35;;;;;;;2.27;2.07;;;;;;;;;;5053507;28;20894;-73
2021/07/07 04:14:01;;;;;;;2.00;1.90;;;;;;;;;;5053528;28;20474;-73
2021/07/07 04:16:27;;;;;;;2.37;2.17;;;;;;;;;;5035777;28;20427;-73
2021/07/07 04:18:53;;;;;;;3.87;2.30;;;;;;;;;;5044006;28;20479;-73
2021/07/07 04:21:19;;;;;;;1.87;1.50;;;;;;;;;;5073145;28;20470;-74
2021/07/07 04:23:45;;;;;;;2.10;1.90;;;;;;;;;;5073588;28;20410;-73
2021/07/07 04:26:11;;;;;;;2.03;1.83;;;;;;;;;;5073236;28;20414;-74
2021/07/07 04:28:37;;;;;;;2.50;1.63;;;;;;;;;;5074036;28;20462;-74
2021/07/07 04:31:03;;;;;;;4.43;1.87;;;;;;;;;;5073414;28;20488;-75
2021/07/07 04:33:32;;;;;;;2.90;1.80;;;;;;;;;;5073141;28;20434;-75
2021/07/07 04:35:58;;;;;;;1.20;1.10;;;;;;;;;;5073233;28;20415;-74
2021/07/07 04:38:24;;;;;;;6.57;2.10;;;;;;;;;;5073351;28;20424;-74
2021/07/07 04:40:50;;;;;;;2.50;1.43;;;;;;;;;;5072608;28;20474;-73
2021/07/07 04:43:16;;;;;;;2.70;1.70;;;;;;;;;;5073375;28;20422;-74
2021/07/07 04:45:41;;;;;;;1.90;1.77;;;;;;;;;;5073314;28;20426;-73
2021/07/07 04:48:07;;;;;;;5.30;2.07;;;;;;;;;;5072991;28;20736;-73
2021/07/07 04:50:35;;;;;;;2.13;1.67;;;;;;;;;;5073210;28;20426;-73
2021/07/07 04:53:01;;;;;;;2.27;1.60;;;;;;;;;;5073174;28;20471;-73
2021/07/07 04:55:27;;;;;;;2.43;2.23;;;;;;;;;;5072189;28;20509;-73
2021/07/07 04:57:54;;;;;;;2.60;1.87;;;;;;;;;;5073075;28;20414;-73
2021/07/07 05:00:21;;;;;;;5.67;2.60;;;;;;;;;;5072826;28;20480;-73
2021/07/07 05:02:48;;;;;;;4.40;3.00;;;;;;;;;;5073169;28;20422;-73
2021/07/07 05:05:15;;;;;;;3.80;2.73;;;;;;;;;;5072484;28;20426;-73
2021/07/07 05:07:43;;;;;;;4.87;2.50;;;;;;;;;;5073204;28;20417;-73
2021/07/07 05:10:10;;;;;;;2.87;2.37;;;;;;;;;;5072279;28;20459;-73
2021/07/07 05:12:37;;;;;;;3.63;3.00;;;;;;;;;;5072899;28;20422;-73
2021/07/07 05:15:04;;;;;;;3.17;2.27;;;;;;;;;;5072607;28;20540;-73
2021/07/07 05:17:30;;;;;;;3.53;1.97;;;;;;;;;;5072291;28;20405;-73
2021/07/07 05:19:57;;;;;;;1.67;1.50;;;;;;;;;;5072380;28;20460;-75
2021/07/07 05:22:23;;;;;;;2.07;1.70;;;;;;;;;;5072720;28;20451;-73
2021/07/07 05:24:49;;;;;;;1.87;1.77;;;;;;;;;;5072200;28;20418;-74
2021/07/07 05:27:15;;;;;;;3.07;2.00;;;;;;;;;;5072587;28;20501;-74
2021/07/07 05:29:43;;;;;;;2.30;2.10;;;;;;;;;;5072453;28;20452;-74
2021/07/07 05:32:09;;;;;;;4.67;2.40;;;;;;;;;;5072695;28;20476;-74
2021/07/07 05:34:36;;;;;;;2.20;1.70;;;;;;;;;;5054120;28;20436;-72
2021/07/07 05:37:02;;;;;;;4.60;2.33;;;;;;;;;;5072695;28;20425;-72
2021/07/07 05:39:28;;;;;;;3.43;2.70;;;;;;;;;;5072246;28;20521;-71
2021/07/07 05:41:54;;;;;;;3.10;2.57;;;;;;;;;;5072494;28;20509;-70
2021/07/07 05:44:20;;;;;;;4.27;3.23;;;;;;;;;;5072416;28;20406;-71
2021/07/07 05:46:46;;;;;;;3.10;2.70;;;;;;;;;;5069533;28;20503;-71
2021/07/07 05:49:12;;;;;;;4.33;3.30;;;;;;;;;;5070900;28;20433;-71
2021/07/07 05:51:38;;;;;;;4.80;3.60;;;;;;;;;;5053321;28;20913;-71
2021/07/07 05:54:04;;;;;;;5.77;3.83;;;;;;;;;;5071488;28;20437;-71
2021/07/07 05:56:30;;;;;;;3.90;3.60;;;;;;;;;;5071135;28;20434;-74
2021/07/07 05:58:56;;;;;;;4.43;3.30;;;;;;;;;;5072368;28;20969;-73
2021/07/07 06:01:22;;;;;;;5.03;2.67;;;;;;;;;;5072194;28;20473;-73
2021/07/07 06:03:48;;;;;;;3.60;2.37;;;;;;;;;;5054126;28;20799;-72
2021/07/07 06:06:14;;;;;;;2.80;2.60;;;;;;;;;;5051094;28;20442;-71
2021/07/07 06:08:40;;;;;;;7.20;3.00;;;;;;;;;;5071165;28;20441;-72
2021/07/07 06:11:06;;;;;;;3.77;2.53;;;;;;;;;;5070886;28;20417;-72
2021/07/07 06:13:32;;;;;;;2.83;2.00;;;;;;;;;;5071050;28;20826;-72
2021/07/07 06:15:58;;;;;;;2.03;1.57;;;;;;;;;;5071042;28;20458;-73
2021/07/07 06:18:24;;;;;;;1.87;1.50;;;;;;;;;;5058266;28;20455;-71
2021/07/07 06:20:50;;;;;;;4.80;1.70;;;;;;;;;;5070056;28;20547;-72
2021/07/07 06:23:16;;;;;;;3.30;1.83;;;;;;;;;;5071008;28;20437;-73
2021/07/07 06:25:42;;;;;;;2.57;1.63;;;;;;;;;;5070358;28;20422;-72
2021/07/07 06:28:08;;;;;;;1.50;1.40;;;;;;;;;;5071027;28;20471;-72
2021/07/07 06:30:34;;;;;;;3.80;1.93;;;;;;;;;;5074142;28;20413;-72
2021/07/07 06:33:00;;;;;;;2.10;1.50;;;;;;;;;;5074316;28;20440;-73
2021/07/07 06:35:30;;;;;;;3.23;1.30;;;;;;;;;;5074671;28;20499;-73
2021/07/07 06:37:56;;;;;;;1.83;1.70;;;;;;;;;;5056912;28;20433;-73
2021/07/07 06:40:22;;;;;;;1.50;1.40;;;;;;;;;;5074523;28;20497;-73
2021/07/07 06:42:48;;;;;;;2.33;1.60;;;;;;;;;;5074745;28;20418;-72
2021/07/07 06:45:15;;;;;;;4.27;1.63;;;;;;;;;;5073762;28;20497;-72
2021/07/07 06:47:41;;;;;;;1.80;1.10;;;;;;;;;;5074414;28;20525;-71
2021/07/07 06:50:09;;;;;;;3.87;1.60;;;;;;;;;;5074130;28;20438;-73
2021/07/07 06:52:35;;;;;;;4.27;1.40;;;;;;;;;;5074490;28;20429;-74
2021/07/07 06:55:01;;;;;;;2.00;1.37;;;;;;;;;;5073743;28;20900;-72
2021/07/07 06:57:27;;;;;;;7.40;1.70;;;;;;;;;;5073834;28;20410;-74
2021/07/07 06:59:53;;;;;;;1.87;1.30;;;;;;;;;;5073868;28;20465;-73
2021/07/07 07:02:19;;;;;;;2.77;1.40;;;;;;;;;;5072766;28;20445;-72
2021/07/07 07:04:45;;;;;;;2.20;1.43;;;;;;;;;;5073522;28;20850;-73
2021/07/07 07:07:11;;;;;;;5.10;1.80;;;;;;;;;;5074312;28;20437;-72
2021/07/07 07:09:37;;;;;;;1.47;1.37;;;;;;;;;;5056392;28;20425;-72
2021/07/07 07:12:03;;;;;;;2.97;1.47;;;;;;;;;;5074779;28;20418;-72
2021/07/07 07:14:29;;;;;;;5.60;2.10;;;;;;;;;;5074292;28;20461;-73
2021/07/07 07:16:55;;;;;;;1.67;1.30;;;;;;;;;;5056528;28;20434;-73
2021/07/07 07:19:21;;;;;;;4.03;1.33;;;;;;;;;;5071637;28;20439;-73
2021/07/07 07:21:47;;;;;;;2.57;1.60;;;;;;;;;;5073956;28;20612;-73
2021/07/07 07:24:13;;;;;;;1.63;1.53;;;;;;;;;;5074476;28;20457;-73
2021/07/07 07:26:39;;;;;;;5.00;1.80;;;;;;;;;;5073960;28;20790;-73
2021/07/07 07:29:05;;;;;;;3.77;1.70;;;;;;;;;;5055607;28;20433;-74
2021/07/07 07:31:32;;;;;;;5.03;2.00;;;;;;;;;;5074206;28;20410;-72
2021/07/07 07:33:58;;;;;;;3.30;1.73;;;;;;;;;;5074133;28;20426;-72
2021/07/07 07:36:24;;;;;;;4.63;1.77;;;;;;;;;;5073701;28;20425;-72
2021/07/07 07:38:59;;;;;;;2.30;1.30;;;;;;;;;;5073572;28;20432;-72
2021/07/07 07:41:27;;;;;;;2.37;1.70;;;;;;;;;;5072812;28;20469;-72
2021/07/07 07:43:53;;;;;;;3.13;1.87;;;;;;;;;;5073518;28;20421;-73
2021/07/07 07:46:19;;;;;;;5.07;2.23;;;;;;;;;;5073439;28;20429;-73
2021/07/07 07:48:45;;;;;;;2.47;2.00;;;;;;;;;;5073097;28;20781;-74
2021/07/07 07:51:11;;;;;;;5.43;2.13;;;;;;;;;;5073290;28;20423;-73
2021/07/07 07:53:37;;;;;;;4.10;3.47;;;;;;;;;;5054021;28;20788;-75
2021/07/07 07:56:03;;;;;;;3.30;2.10;;;;;;;;;;5059475;28;20442;-73
2021/07/07 07:58:29;;;;;;;4.10;2.00;;;;;;;;;;5066304;28;20851;-73
2021/07/07 08:00:55;;;;;;;2.07;1.77;;;;;;;;;;5068587;28;20470;-73
2021/07/07 08:03:21;;;;;;;3.90;1.90;;;;;;;;;;5069614;28;21049;-73
2021/07/07 08:05:47;;;;;;;3.47;1.80;;;;;;;;;;5051221;28;20433;-72
2021/07/07 08:08:13;;;;;;;2.63;1.60;;;;;;;;;;5051403;28;20495;-73
2021/07/07 08:10:39;;;;;;;2.47;2.03;;;;;;;;;;5069086;28;20491;-74
2021/07/07 08:13:05;;;;;;;2.60;0.93;;;;;;;;;;5069255;28;20430;-74
2021/07/07 08:15:32;;;;;;;2.40;1.27;;;;;;;;;;5064747;28;21064;-73
2021/07/07 08:17:58;;;;;;;1.93;1.17;;;;;;;;;;5069245;28;20456;-75
2021/07/07 08:20:24;;;;;;;2.70;1.30;;;;;;;;;;5066651;28;20576;-75
2021/07/07 08:22:51;;;;;;;1.63;1.20;;;;;;;;;;5069479;28;20426;-72
2021/07/07 08:25:17;;;;;;;1.53;1.43;;;;;;;;;;5068835;28;20524;-73
2021/07/07 08:27:45;;;;;;;3.10;1.30;;;;;;;;;;5069221;28;20521;-74
2021/07/07 08:30:12;;;;;;;3.70;1.67;;;;;;;;;;5069442;28;20510;-73
2021/07/07 08:32:38;;;;;;;4.50;1.70;;;;;;;;;;5051675;28;20438;-73
2021/07/07 08:35:05;;;;;;;3.10;2.23;;;;;;;;;;5069032;28;20475;-75
2021/07/07 08:37:32;;;;;;;3.23;1.73;;;;;;;;;;5068887;28;20494;-73
2021/07/07 08:39:58;;;;;;;3.47;2.03;;;;;;;;;;5068940;28;20572;-74
2021/07/07 08:42:24;;;;;;;2.00;1.40;;;;;;;;;;5069640;28;20509;-74
2021/07/07 08:44:50;;;;;;;2.53;1.70;;;;;;;;;;5051401;28;21724;-74
2021/07/07 08:47:16;;;;;;;6.50;1.70;;;;;;;;;;5069058;28;20433;-73
2021/07/07 08:49:42;;;;;;;4.17;2.50;;;;;;;;;;5068989;28;20811;-73
2021/07/07 08:52:09;;;;;;;5.10;1.53;;;;;;;;;;5067553;28;20433;-74
2021/07/07 08:54:35;;;;;;;5.67;2.03;;;;;;;;;;5068762;28;20452;-74
2021/07/07 08:57:07;;;;;;;4.17;1.63;;;;;;;;;;5068743;28;20430;-74
2021/07/07 08:59:33;;;;;;;2.53;1.57;;;;;;;;;;5051186;28;20936;-73
2021/07/07 09:01:59;;;;;;;2.40;2.03;;;;;;;;;;5061176;28;20499;-73
2021/07/07 09:04:29;;;;;;;10.90;3.30;;;;;;;;;;5050402;28;20448;-75
2021/07/07 09:06:59;;;;;;;2.40;1.93;;;;;;;;;;5068400;28;20866;-74
2021/07/07 09:09:39;;;;;;;4.80;1.87;;;;;;;;;;5068305;28;20430;-73
2021/07/07 09:12:15;;;;;;;1.40;1.30;;;;;;;;;;5068121;28;20438;-73
2021/07/07 09:14:43;;;;;;;3.37;1.47;;;;;;;;;;5068433;28;20469;-74
2021/07/07 09:17:13;;;;;;;2.90;1.57;;;;;;;;;;5068440;28;20516;-74
2021/07/07 09:19:39;;;;;;;3.00;1.40;;;;;;;;;;5050352;28;20487;-74
2021/07/07 09:22:06;;;;;;;1.83;1.23;;;;;;;;;;5068635;28;20434;-75
2021/07/07 09:24:33;;;;;;;3.07;1.77;;;;;;;;;;5050761;28;20430;-74
2021/07/07 09:27:00;;;;;;;4.57;1.73;;;;;;;;;;5068135;28;20863;-74
2021/07/07 09:29:38;;;;;;;3.83;1.80;;;;;;;;;;5063763;28;20456;-74
2021/07/07 09:32:16;;;;;;;1.53;1.40;;;;;;;;;;5066863;28;20433;-74
2021/07/07 09:34:43;;;;;;;3.00;1.97;;;;;;;;;;5050329;28;20491;-73
2021/07/07 09:37:09;;;;;;;3.40;1.57;;;;;;;;;;5050717;28;20470;-74
2021/07/07 09:39:36;;;;;;;1.70;1.60;;;;;;;;;;5049301;28;20503;-73
2021/07/07 09:42:02;;;;;;;4.90;1.80;;;;;;;;;;5050198;28;20441;-73
2021/07/07 09:44:32;;;;;;;1.90;1.67;;;;;;;;;;5068342;28;20426;-74
2021/07/07 09:46:59;;;;;;;1.50;1.40;;;;;;;;;;5067246;28;20507;-73
2021/07/07 09:49:26;;;;;;;1.50;1.30;;;;;;;;;;5050072;28;20434;-72
2021/07/07 09:51:52;;;;;;;1.57;1.47;;;;;;;;;;5067998;28;20430;-73
2021/07/07 09:54:21;;;;;;;1.70;1.60;;;;;;;;;;5067140;28;20441;-73
2021/07/07 09:56:47;;;;;;;2.30;1.70;;;;;;;;;;5066486;28;20438;-72
2021/07/07 09:59:13;;;;;;;3.30;1.30;;;;;;;;;;5068141;28;20836;-72
2021/07/07 10:01:39;;;;;;;1.23;1.13;;;;;;;;;;5067834;28;20558;-73
2021/07/07 10:04:10;;;;;;;2.10;1.10;;;;;;;;;;5070792;28;20793;-73
2021/07/07 10:06:36;;;;;;;1.30;1.20;;;;;;;;;;5071468;28;20442;-73
2021/07/07 10:09:02;;;;;;;3.80;1.70;;;;;;;;;;5071503;28;20533;-72
2021/07/07 10:11:28;;;;;;;2.40;1.10;;;;;;;;;;5071017;28;20437;-74
2021/07/07 10:13:55;;;;;;;2.27;1.40;;;;;;;;;;5066954;28;20481;-73
2021/07/07 10:16:21;;;;;;;1.87;1.60;;;;;;;;;;5071914;28;20434;-72
2021/07/07 10:18:47;;;;;;;1.43;1.33;;;;;;;;;;5069925;28;20449;-72
2021/07/07 10:21:14;;;;;;;2.40;1.20;;;;;;;;;;5070897;28;20484;-73
2021/07/07 10:23:40;;;;;;;2.20;1.63;;;;;;;;;;5068312;28;20464;-73
2021/07/07 10:26:07;;;;;;;2.60;1.10;;;;;;;;;;5071118;28;20441;-73
2021/07/07 10:28:34;;;;;;;1.40;1.30;;;;;;;;;;5071735;28;20445;-75
2021/07/07 10:31:02;;;;;;;1.30;1.20;;;;;;;;;;5053672;28;20429;-73
2021/07/07 10:33:29;;;;;;;1.10;1.00;;;;;;;;;;5071114;28;20942;-74
2021/07/07 10:36:14;;;;;;;1.37;1.27;;;;;;;;;;5070808;28;20789;-72
2021/07/07 10:38:40;;;;;;;2.60;2.40;;;;;;;;;;5054617;28;20583;-73
2021/07/07 10:41:05;;;;;;;2.50;1.17;;;;;;;;;;5054186;28;20630;-73
2021/07/07 10:43:45;;;;;;;1.70;1.30;;;;;;;;;;5054463;28;20414;-73
2021/07/07 10:46:11;;;;;;;2.23;1.20;;;;;;;;;;5062785;28;20433;-74
2021/07/07 10:48:37;;;;;;;1.47;1.37;;;;;;;;;;5074412;28;20542;-72
2021/07/07 10:51:06;;;;;;;2.40;1.23;;;;;;;;;;5074343;28;20443;-75
2021/07/07 10:53:36;;;;;;;1.93;1.33;;;;;;;;;;5074348;28;20769;-73
2021/07/07 10:56:04;;;;;;;1.97;1.77;;;;;;;;;;5073931;28;20449;-74
2021/07/07 10:58:31;;;;;;;1.50;1.40;;;;;;;;;;5055719;28;20809;-73
2021/07/07 11:00:58;;;;;;;1.77;1.00;;;;;;;;;;5062912;28;20473;-74
2021/07/07 11:03:36;;;;;;;0.90;0.90;;;;;;;;;;5069210;28;20434;-72
2021/07/07 11:06:21;;;;;;;1.37;1.20;;;;;;;;;;5070107;28;20528;-73
2021/07/07 11:08:49;;;;;;;1.40;1.20;;;;;;;;;;5069785;28;20437;-73
2021/07/07 11:11:22;;;;;;;1.37;1.10;;;;;;;;;;5069033;28;20425;-73
2021/07/07 11:13:49;;;;;;;1.80;1.03;;;;;;;;;;5070448;28;20473;-73
2021/07/07 11:16:18;;;;;;;1.03;0.93;;;;;;;;;;5070246;28;20429;-74
2021/07/07 11:18:46;;;;;;;3.43;1.10;;;;;;;;;;5069350;28;20430;-74
2021/07/07 11:21:13;;;;;;;3.43;1.00;;;;;;;;;;5069880;28;20524;-73
2021/07/07 11:23:39;;;;;;;1.40;0.90;;;;;;;;;;5070682;28;20442;-73
2021/07/07 11:26:06;;;;;;;1.30;1.20;;;;;;;;;;5069990;28;20426;-73
2021/07/07 11:28:32;;;;;;;1.40;1.30;;;;;;;;;;5070393;28;20440;-73
2021/07/07 11:30:58;;;;;;;1.10;1.00;;;;;;;;;;5070817;28;20464;-73
2021/07/07 11:33:24;;;;;;;1.47;1.37;;;;;;;;;;5070656;28;20445;-72
2021/07/07 11:35:51;;;;;;;1.70;1.50;;;;;;;;;;5070246;28;20433;-73
2021/07/07 11:38:23;;;;;;;0.70;0.67;;;;;;;;;;5052610;28;20425;-73
2021/07/07 11:40:52;;;;;;;3.80;0.90;;;;;;;;;;5051494;28;21015;-72
2021/07/07 11:43:20;;;;;;;4.33;1.37;;;;;;;;;;5051688;28;20925;-75
2021/07/07 11:45:50;;;;;;;1.87;1.10;;;;;;;;;;5069305;28;20818;-74
2021/07/07 11:48:32;;;;;;;2.03;0.90;;;;;;;;;;5070057;28;20873;-74
2021/07/07 11:51:05;;;;;;;1.20;1.20;;;;;;;;;;5070288;28;20771;-76
2021/07/07 11:53:35;;;;;;;1.13;1.03;;;;;;;;;;5069478;28;20471;-73
2021/07/07 11:56:06;;;;;;;1.03;0.93;;;;;;;;;;5052093;28;20469;-73
2021/07/07 11:58:36;;;;;;;1.23;1.13;;;;;;;;;;5070005;28;20476;-74
2021/07/07 12:01:28;;;;;;;1.37;0.90;;;;;;;;;;5070358;28;20485;-73
2021/07/07 12:04:01;;;;;;;1.37;1.27;;;;;;;;;;5047888;28;20955;-73
2021/07/07 12:06:34;;;;;;;1.20;1.10;;;;;;;;;;5070930;28;20465;-73
2021/07/07 12:09:03;;;;;;;1.17;1.07;;;;;;;;;;5070696;28;20501;-74
2021/07/07 12:11:30;;;;;;;4.90;1.30;;;;;;;;;;5072155;28;20970;-73
2021/07/07 12:13:57;;;;;;;1.33;1.10;;;;;;;;;;5073949;28;20959;-73
2021/07/07 12:16:33;;;;;;;2.63;0.90;;;;;;;;;;5071785;28;20442;-73
2021/07/07 12:19:00;;;;;;;2.30;1.13;;;;;;;;;;5073839;28;20430;-73
2021/07/07 12:21:26;;;;;;;1.17;1.07;;;;;;;;;;5073869;28;20501;-74
2021/07/07 12:23:54;;;;;;;1.13;1.03;;;;;;;;;;5074043;28;20476;-73
2021/07/07 12:26:27;;;;;;;1.40;1.30;;;;;;;;;;5054597;28;20839;-73
2021/07/07 12:28:55;;;;;;;2.40;1.20;;;;;;;;;;5073859;28;20422;-74
2021/07/07 12:31:21;;;;;;;2.03;1.10;;;;;;;;;;5073982;28;20769;-73
2021/07/07 12:33:53;;;;;;;1.33;0.90;;;;;;;;;;5056007;28;20567;-74
2021/07/07 12:36:29;;;;;;;0.93;0.83;;;;;;;;;;5055739;28;20421;-76
2021/07/07 12:38:56;;;;;;;0.93;0.67;;;;;;;;;;5056042;28;20791;-74
2021/07/07 12:41:31;;;;;;;1.17;1.07;;;;;;;;;;5073249;28;20576;-73
2021/07/07 12:44:12;;;;;;;0.83;0.83;;;;;;;;;;5055470;28;20436;-73
2021/07/07 12:46:47;;;;;;;1.40;1.30;;;;;;;;;;5073549;28;20798;-74
2021/07/07 12:49:21;;;;;;;1.30;1.13;;;;;;;;;;5073336;28;20413;-73
2021/07/07 12:51:48;;;;;;;1.33;0.80;;;;;;;;;;5073440;28;20457;-74
2021/07/07 12:54:21;;;;;;;1.70;1.10;;;;;;;;;;5073461;28;20414;-74
2021/07/07 12:56:56;;;;;;;1.40;1.10;;;;;;;;;;5073031;28;20410;-73
2021/07/07 12:59:22;;;;;;;1.03;0.93;;;;;;;;;;5073296;28;20456;-74
2021/07/07 13:01:57;;;;;;;1.10;0.80;;;;;;;;;;5073130;28;20469;-75
2021/07/07 13:04:24;;;;;;;1.00;1.00;;;;;;;;;;5072867;28;20413;-73
2021/07/07 13:07:01;;;;;;;2.10;1.00;;;;;;;;;;5073130;28;20468;-74
2021/07/07 13:09:27;;;;;;;1.20;1.10;;;;;;;;;;5073268;28;20414;-75
2021/07/07 13:12:07;;;;;;;1.20;1.10;;;;;;;;;;5072615;28;20840;-74
2021/07/07 13:14:33;;;;;;;1.10;1.00;;;;;;;;;;5072772;28;20562;-73
2021/07/07 13:16:59;;;;;;;2.90;1.07;;;;;;;;;;5073059;28;20413;-74
2021/07/07 13:19:26;;;;;;;1.10;1.00;;;;;;;;;;5072702;28;20765;-74
2021/07/07 13:21:59;;;;;;;1.03;1.03;;;;;;;;;;5072745;28;20539;-75
2021/07/07 13:24:25;;;;;;;1.23;1.13;;;;;;;;;;5073185;28;20475;-73
2021/07/07 13:27:08;;;;;;;1.87;0.90;;;;;;;;;;5072651;28;20414;-74
2021/07/07 13:29:45;;;;;;;1.00;0.90;;;;;;;;;;5054930;28;20438;-72
2021/07/07 13:32:12;;;;;;;1.20;1.10;;;;;;;;;;5072970;28;20417;-76
2021/07/07 13:34:39;;;;;;;0.83;0.83;;;;;;;;;;5054597;28;20432;-74
2021/07/07 13:37:16;;;;;;;1.20;1.10;;;;;;;;;;5048796;28;20454;-74
2021/07/07 13:39:46;;;;;;;1.30;1.20;;;;;;;;;;5069258;28;20974;-75
2021/07/07 13:42:13;;;;;;;1.43;0.97;;;;;;;;;;5070975;28;20460;-74
2021/07/07 13:44:40;;;;;;;0.97;0.90;;;;;;;;;;5069645;28;20441;-75
2021/07/07 13:47:06;;;;;;;1.03;0.70;;;;;;;;;;5045346;28;20461;-73
2021/07/07 13:49:32;;;;;;;1.00;0.90;;;;;;;;;;5053673;28;20461;-76
2021/07/07 13:51:58;;;;;;;1.13;0.87;;;;;;;;;;5053281;28;20487;-76
2021/07/07 13:54:24;;;;;;;1.30;1.20;;;;;;;;;;5071463;28;20448;-74
2021/07/07 13:56:50;;;;;;;1.40;1.30;;;;;;;;;;5049389;28;20538;-74
2021/07/07 13:59:16;;;;;;;0.80;0.80;;;;;;;;;;5050670;28;20437;-73
2021/07/07 14:01:42;;;;;;;2.17;0.80;;;;;;;;;;5058920;28;20473;-73
2021/07/07 14:04:09;;;;;;;0.73;0.73;;;;;;;;;;5071639;28;20421;-74
2021/07/07 14:06:36;;;;;;;0.97;0.80;;;;;;;;;;5071453;28;20452;-74
2021/07/07 14:09:02;;;;;;;1.07;1.00;;;;;;;;;;5071592;28;20418;-74
2021/07/07 14:11:30;;;;;;;2.83;1.03;;;;;;;;;;5046929;28;20454;-74
2021/07/07 14:13:56;;;;;;;0.90;0.90;;;;;;;;;;5070545;28;20481;-74
2021/07/07 14:16:22;;;;;;;1.70;0.80;;;;;;;;;;5071094;28;20418;-74
2021/07/07 14:18:48;;;;;;;1.10;0.83;;;;;;;;;;5064840;28;20415;-74
2021/07/07 14:21:14;;;;;;;0.97;0.90;;;;;;;;;;5070939;28;20957;-74
2021/07/07 14:23:40;;;;;;;1.30;1.10;;;;;;;;;;5070982;28;20417;-74
2021/07/07 14:26:06;;;;;;;1.70;0.90;;;;;;;;;;5055149;28;20439;-74
2021/07/07 14:28:32;;;;;;;1.07;0.90;;;;;;;;;;5069582;28;20917;-76
2021/07/07 14:30:58;;;;;;;1.33;1.17;;;;;;;;;;5071078;28;20426;-75
2021/07/07 14:33:24;;;;;;;1.00;0.87;;;;;;;;;;5069667;28;20418;-75
2021/07/07 14:35:50;;;;;;;0.80;0.80;;;;;;;;;;5050748;28;20852;-74
2021/07/07 14:38:16;;;;;;;1.07;1.00;;;;;;;;;;5058969;28;20414;-74
2021/07/07 14:40:43;;;;;;;2.60;1.20;;;;;;;;;;5070086;28;20505;-73
2021/07/07 14:43:09;;;;;;;1.00;0.80;;;;;;;;;;5070401;28;20500;-74